地図

経路データ

SID SEASON NUMBER BASIN SUBBASIN NAME ISO_TIME NATURE LAT LON WMO_WIND WMO_PRES WMO_AGENCY TRACK_TYPE DIST2LAND LANDFALL IFLAG USA_AGENCY USA_ATCF_ID USA_LAT USA_LON USA_RECORD USA_STATUS USA_WIND USA_PRES USA_SSHS USA_R34_NE USA_R34_SE USA_R34_SW USA_R34_NW USA_R50_NE USA_R50_SE USA_R50_SW USA_R50_NW USA_R64_NE USA_R64_SE USA_R64_SW USA_R64_NW USA_POCI USA_ROCI USA_RMW USA_EYE TOKYO_LAT TOKYO_LON TOKYO_GRADE TOKYO_WIND TOKYO_PRES TOKYO_R50_DIR TOKYO_R50_LONG TOKYO_R50_SHORT TOKYO_R30_DIR TOKYO_R30_LONG TOKYO_R30_SHORT TOKYO_LAND CMA_LAT CMA_LON CMA_CAT CMA_WIND CMA_PRES HKO_LAT HKO_LON HKO_CAT HKO_WIND HKO_PRES NEWDELHI_LAT NEWDELHI_LON NEWDELHI_GRADE NEWDELHI_WIND NEWDELHI_PRES NEWDELHI_CI NEWDELHI_DP NEWDELHI_POCI REUNION_LAT REUNION_LON REUNION_TYPE REUNION_WIND REUNION_PRES REUNION_TNUM REUNION_CI REUNION_RMW REUNION_R34_NE REUNION_R34_SE REUNION_R34_SW REUNION_R34_NW REUNION_R50_NE REUNION_R50_SE REUNION_R50_SW REUNION_R50_NW REUNION_R64_NE REUNION_R64_SE REUNION_R64_SW REUNION_R64_NW BOM_LAT BOM_LON BOM_TYPE BOM_WIND BOM_PRES BOM_TNUM BOM_CI BOM_RMW BOM_R34_NE BOM_R34_SE BOM_R34_SW BOM_R34_NW BOM_R50_NE BOM_R50_SE BOM_R50_SW BOM_R50_NW BOM_R64_NE BOM_R64_SE BOM_R64_SW BOM_R64_NW BOM_ROCI BOM_POCI BOM_EYE BOM_POS_METHOD BOM_PRES_METHOD NADI_LAT NADI_LON NADI_CAT NADI_WIND NADI_PRES WELLINGTON_LAT WELLINGTON_LON WELLINGTON_WIND WELLINGTON_PRES DS824_LAT DS824_LON DS824_STAGE DS824_WIND DS824_PRES TD9636_LAT TD9636_LON TD9636_STAGE TD9636_WIND TD9636_PRES TD9635_LAT TD9635_LON TD9635_WIND TD9635_PRES TD9635_ROCI NEUMANN_LAT NEUMANN_LON NEUMANN_CLASS NEUMANN_WIND NEUMANN_PRES MLC_LAT MLC_LON MLC_CLASS MLC_WIND MLC_PRES USA_GUST BOM_GUST BOM_GUST_PER REUNION_GUST REUNION_GUST_PER USA_SEAHGT USA_SEARAD_NE USA_SEARAD_SE USA_SEARAD_SW USA_SEARAD_NW STORM_SPEED STORM_DIR
2020235N23122 2020 26 WP MM BAVI 2020-08-21 18:00:00 NR 23.0000 122.300 PROVISIONAL 92 92 O_____________ tcvitals WP092020 23.0000 122.300 25 1005 -1 1007 160 45 6 39
2020235N23122 2020 26 WP MM BAVI 2020-08-21 21:00:00 NR 23.2251 122.495 PROVISIONAL 112 111 P_____________ WP092020 23.2251 122.495 27 1003 -1 1007 152 45 6 36
2020235N23122 2020 26 WP MM BAVI 2020-08-22 00:00:00 NR 23.5000 122.700 PROVISIONAL 124 122 O_____________ tcvitals WP092020 23.5000 122.700 29 1002 -1 1007 145 45 8 32
2020235N23122 2020 26 WP MM BAVI 2020-08-22 03:00:00 NR 23.8624 122.928 PROVISIONAL 121 121 P_____________ WP092020 23.8624 122.928 37 999 0 45 50 15 5 1006 160 62 9 30
2020235N23122 2020 26 WP MM BAVI 2020-08-22 06:00:00 NR 24.3000 123.200 PROVISIONAL 133 131 O_____________ tcvitals WP092020 24.3000 123.200 45 996 0 90 100 30 11 1006 175 80 11 33
2020235N23122 2020 26 WP MM BAVI 2020-08-22 09:00:00 NR 24.8228 123.602 PROVISIONAL 162 161 P_____________ WP092020 24.8228 123.602 48 994 0 90 100 37 11 1006 172 65 12 32
2020235N23122 2020 26 WP MM BAVI 2020-08-22 12:00:00 NR 25.3000 123.900 PROVISIONAL 194 194 O_____________ tcvitals WP092020 25.3000 123.900 51 992 0 90 100 45 11 1006 170 50 8 16
2020235N23122 2020 26 WP MM BAVI 2020-08-22 15:00:00 NR 25.5874 123.846 PROVISIONAL 192 187 P_____________ WP092020 25.5874 123.846 51 991 0 90 100 45 20 1006 160 50 5 340
2020235N23122 2020 26 WP MM BAVI 2020-08-22 18:00:00 NR 25.8000 123.700 PROVISIONAL 192 192 O_____________ tcvitals WP092020 25.8000 123.700 51 991 0 90 100 45 30 1006 150 50 5 343
2020235N23122 2020 26 WP MM BAVI 2020-08-22 21:00:00 NR 26.0574 123.690 PROVISIONAL 210 210 P_____________ WP092020 26.0574 123.690 52 989 0 90 100 45 30 1006 150 50 5 10
2020235N23122 2020 26 WP MM BAVI 2020-08-23 00:00:00 NR 26.3000 123.800 PROVISIONAL 231 231 O_____________ tcvitals WP092020 26.3000 123.800 54 987 0 90 100 45 30 1006 150 50 6 36
2020235N23122 2020 26 WP MM BAVI 2020-08-23 03:00:00 NR 26.5075 124.055 PROVISIONAL 268 268 P_____________ WP092020 26.5075 124.055 57 983 0 100 115 72 50 1005 165 45 7 53
2020235N23122 2020 26 WP MM BAVI 2020-08-23 06:00:00 NR 26.7000 124.400 PROVISIONAL 306 306 O_____________ tcvitals WP092020 26.7000 124.400 60 979 0 110 130 100 70 1004 180 40 8 56
2020235N23122 2020 26 WP MM BAVI 2020-08-23 09:00:00 NR 26.9376 124.765 PROVISIONAL 351 346 P_____________ WP092020 26.9376 124.765 65 976 1 112 132 100 80 1004 187 35 7 57
2020235N23122 2020 26 WP MM BAVI 2020-08-23 12:00:00 NR 27.1000 125.100 PROVISIONAL 369 369 O_____________ tcvitals WP092020 27.1000 125.100 70 973 1 115 135 100 90 1005 195 30 5 76
2020235N23122 2020 26 WP MM BAVI 2020-08-23 15:00:00 NR 27.0573 125.315 PROVISIONAL 387 387 P_____________ WP092020 27.0573 125.315 67 974 1 115 127 105 95 1005 195 27 4 106
2020235N23122 2020 26 WP MM BAVI 2020-08-23 18:00:00 NR 27.0000 125.500 PROVISIONAL 410 410 O_____________ tcvitals WP092020 27.0000 125.500 64 976 1 115 120 110 100 1005 195 25 4 83
2020235N23122 2020 26 WP MM BAVI 2020-08-23 21:00:00 NR 27.1050 125.735 PROVISIONAL 424 424 P_____________ WP092020 27.1050 125.735 67 974 1 115 123 118 100 1005 195 25 5 56
2020235N23122 2020 26 WP MM BAVI 2020-08-24 00:00:00 NR 27.3000 126.000 PROVISIONAL 445 445 O_____________ tcvitals WP092020 27.3000 126.000 70 972 1 115 126 126 100 1005 195 25 7 53
2020235N23122 2020 26 WP MM BAVI 2020-08-24 03:00:00 NR 27.5202 126.352 PROVISIONAL 470 465 P_____________ WP092020 27.5202 126.352 72 968 1 122 123 118 110 1003 192 21 7 47
2020235N23122 2020 26 WP MM BAVI 2020-08-24 06:00:00 NR 27.8000 126.600 PROVISIONAL 475 461 O_____________ tcvitals WP092020 27.8000 126.600 74 964 1 130 120 110 120 1001 190 17 7 16
2020235N23122 2020 26 WP MM BAVI 2020-08-24 09:00:00 NR 28.1799 126.568 PROVISIONAL 461 435 P_____________ WP092020 28.1799 126.568 83 957 2 130 120 110 120 1001 192 17 7 346
2020235N23122 2020 26 WP MM BAVI 2020-08-24 12:00:00 NR 28.5000 126.400 PROVISIONAL 435 423 O_____________ tcvitals WP092020 28.5000 126.400 93 950 2 130 120 110 120 1002 195 17 5 325
2020235N23122 2020 26 WP MM BAVI 2020-08-24 15:00:00 NR 28.5575 126.265 PROVISIONAL 423 404 P_____________ WP092020 28.5575 126.265 91 952 2 128 125 112 112 1002 195 17 3 291
2020235N23122 2020 26 WP MM BAVI 2020-08-24 18:00:00 NR 28.6000 126.100 PROVISIONAL 404 381 O_____________ tcvitals WP092020 28.6000 126.100 89 954 2 126 130 115 105 1002 195 17 4 312
2020235N23122 2020 26 WP MM BAVI 2020-08-24 21:00:00 NR 28.8551 125.893 PROVISIONAL 380 358 P_____________ WP092020 28.8551 125.893 89 954 2 123 122 115 112 1002 195 11 7 330
2020235N23122 2020 26 WP MM BAVI 2020-08-25 00:00:00 NR 29.2000 125.700 PROVISIONAL 358 348 O_____________ tcvitals WP092020 29.2000 125.700 89 954 2 120 115 115 120 1002 195 6 7 339
2020235N23122 2020 26 WP MM BAVI 2020-08-25 03:00:00 NR 29.5349 125.600 PROVISIONAL 350 344 P_____________ WP092020 29.5349 125.600 91 952 2 120 115 115 120 1002 195 5 7 346
2020235N23122 2020 26 WP MM BAVI 2020-08-25 06:00:00 NR 29.9000 125.500 PROVISIONAL 346 329 O_____________ tcvitals WP092020 29.9000 125.500 93 950 2 120 115 115 120 1002 195 5 8 342
2020235N23122 2020 26 WP MM BAVI 2020-08-25 09:00:00 NR 30.3076 125.308 PROVISIONAL 331 300 P_____________ WP092020 30.3076 125.308 93 949 2 125 120 112 100 1001 192 8 9 337
2020235N23122 2020 26 WP MM BAVI 2020-08-25 12:00:00 NR 30.7000 125.100 PROVISIONAL 300 274 O_____________ tcvitals WP092020 30.7000 125.100 93 949 2 130 126 110 80 1000 190 12 8 335
2020235N23122 2020 26 WP MM BAVI 2020-08-25 15:00:00 NR 30.9846 124.938 PROVISIONAL 278 254 P_____________ WP092020 30.9775 124.942 93 948 2 130 128 107 87 999 190 8 7 337
2020235N23122 2020 26 WP MM BAVI 2020-08-25 18:00:00 NR 31.3000 124.800 PROVISIONAL 254 224 O_____________ tcvitals WP092020 31.3000 124.800 93 947 2 130 130 105 95 999 190 5 8 343
2020235N23122 2020 26 WP MM BAVI 2020-08-25 21:00:00 NR 31.7549 124.662 PROVISIONAL 216 186 P_____________ WP092020 31.8050 124.635 96 944 3 142 135 107 105 999 190 12 10 348
2020235N23122 2020 26 WP MM BAVI 2020-08-26 00:00:00 NR 32.3051 124.556 PROVISIONAL 186 167 O_____________ tcvitals WP092020 32.4000 124.500 99 942 3 155 140 110 115 999 190 20 11 352
2020235N23122 2020 26 WP MM BAVI 2020-08-26 03:00:00 NR 32.8813 124.488 PROVISIONAL 164 157 P_____________ WP092020 32.9700 124.420 96 943 3 157 137 115 102 998 192 18 12 356
2020235N23122 2020 26 WP MM BAVI 2020-08-26 06:00:00 NR 33.5407 124.462 PROVISIONAL 159 159 O_____________ tcvitals WP092020 33.6000 124.400 93 945 2 160 135 120 90 997 195 17 14 359
2020235N23122 2020 26 WP MM BAVI 2020-08-26 09:00:00 NR 34.2706 124.474 PROVISIONAL 168 154 P_____________ WP092020 34.2975 124.442 93 945 2 135 132 117 90 997 195 15 16 1
2020235N23122 2020 26 WP MM BAVI 2020-08-26 12:00:00 NR 35.1000 124.500 PROVISIONAL 154 154 O_____________ tcvitals WP092020 35.1000 124.500 93 945 2 110 130 115 90 997 195 14 17 1
2020235N23122 2020 26 WP MM BAVI 2020-08-26 15:00:00 NR 36.0095 124.481 PROVISIONAL 162 113 P_____________ WP092020 36.0050 124.486 86 950 2 115 130 112 92 996 195 14 19 0
2020235N23122 2020 26 WP MM BAVI 2020-08-26 18:00:00 NR 37.0000 124.500 PROVISIONAL 105 14 O_____________ tcvitals WP092020 37.0000 124.500 80 955 1 120 130 110 95 996 195 14 20 3
2020235N23122 2020 26 WP MM BAVI 2020-08-26 21:00:00 NR 38.0155 124.591 PROVISIONAL 14 8 P_____________ WP092020 38.0047 124.577 72 960 1 115 130 100 95 996 190 14 21 6
2020235N23122 2020 26 WP MM BAVI 2020-08-27 00:00:00 NR 39.1000 124.800 PROVISIONAL 34 0 O_____________ tcvitals WP092020 39.1000 124.800 64 966 1 110 130 90 95 996 185 14 24 11
2020235N23122 2020 26 WP MM BAVI 2020-08-27 03:00:00 NR 40.3269 125.189 PROVISIONAL 0 0 P_____________ WP092020 40.3269 125.189 51 973 0 127 128 85 77 996 185 14 26 17
2020235N23122 2020 26 WP MM BAVI 2020-08-27 06:00:00 NR 41.6000 125.800 PROVISIONAL 0 0 O_____________ tcvitals WP092020 41.6000 125.800 39 980 0 145 126 80 60 996 185 14 27 23
2020235N23122 2020 26 WP MM BAVI 2020-08-27 09:00:00 NR 42.8220 126.629 PROVISIONAL 0 0 P_____________ WP092020 42.8220 126.629 34 982 0 996 185 14 27 29
2020235N23122 2020 26 WP MM BAVI 2020-08-27 12:00:00 NR 44.0000 127.600 PROVISIONAL 0 O_____________ tcvitals WP092020 44.0000 127.600 29 984 -1 996 185 14 27 31

デジタル台風データ・検索

IBTrACS Databaseについて

本データベースは、米国NOAAが公開する1842年以降の世界の熱帯低気圧のベストトラックデータアーカイブInternational Best Track Archive for Climate Stewardship (IBTrACS)を、ウェブで閲覧しやすい形式に変換したものです。

最終更新日:2021-10-08